createdAt,value
2023-04-15T00:00:57.541Z,97200.47
2023-04-15T00:03:24.764Z,97204.09
2023-04-15T00:05:52.015Z,97198.81
2023-04-15T00:08:18.636Z,97198.97
2023-04-15T00:10:46.705Z,97205.06
2023-04-15T00:13:13.340Z,97191.78
2023-04-15T00:15:39.918Z,97214.81
2023-04-15T00:18:08.138Z,97216.78
2023-04-15T00:20:35.810Z,97231.66
2023-04-15T00:23:03.892Z,97219.47
2023-04-15T00:25:30.680Z,97230.84
2023-04-15T00:27:57.184Z,97228.34
2023-04-15T00:30:23.976Z,97231.81
2023-04-15T00:32:50.813Z,97226.81
2023-04-15T00:35:21.738Z,97226.53
2023-04-15T00:37:51.389Z,97219.56
2023-04-15T00:40:20.911Z,97222.22
2023-04-15T00:42:47.571Z,97210.81
2023-04-15T00:45:14.300Z,97211.63
2023-04-15T00:47:44.654Z,97215.41
2023-04-15T00:50:13.252Z,97216.22
2023-04-15T00:52:40.676Z,97205.13
2023-04-15T00:55:08.652Z,97207.47
2023-04-15T00:57:36.453Z,97188.88
2023-04-15T01:00:04.718Z,97200.41
2023-04-15T01:02:32.689Z,97199.00
2023-04-15T01:05:00.513Z,97203.16
2023-04-15T01:07:27.225Z,97200.69
2023-04-15T01:09:53.969Z,97200.84
2023-04-15T01:12:20.744Z,97211.00
2023-04-15T01:14:48.105Z,97222.66
2023-04-15T01:17:14.731Z,97226.25
2023-04-15T01:19:41.717Z,97214.88
2023-04-15T01:22:09.192Z,97215.84
2023-04-15T01:24:38.318Z,97223.63
2023-04-15T01:27:05.919Z,97230.88
2023-04-15T01:29:35.810Z,97230.88
2023-04-15T01:32:02.364Z,97234.34
2023-04-15T01:34:28.922Z,97237.97
2023-04-15T01:36:55.599Z,97245.09
2023-04-15T01:39:22.591Z,97238.97
2023-04-15T01:41:49.159Z,97243.41
2023-04-15T01:44:16.489Z,97246.06
2023-04-15T01:46:43.104Z,97252.19
2023-04-15T01:49:09.629Z,97242.59
2023-04-15T01:51:36.298Z,97241.63
2023-04-15T01:54:02.917Z,97243.41
2023-04-15T01:56:30.068Z,97242.59
2023-04-15T01:58:56.998Z,97242.59
2023-04-15T02:01:23.721Z,97236.44
2023-04-15T02:03:50.690Z,97214.69
2023-04-15T02:06:18.433Z,97236.44
2023-04-15T02:08:45.176Z,97250.66
2023-04-15T02:11:11.820Z,97264.72
2023-04-15T02:13:38.489Z,97277.94
2023-04-15T02:16:15.916Z,97224.63
2023-04-15T02:18:47.487Z,97270.97
2023-04-15T02:21:14.503Z,97264.03
2023-04-15T02:23:41.427Z,97267.78
2023-04-15T02:26:08.235Z,97263.19
2023-04-15T02:28:34.936Z,97261.69
2023-04-15T02:31:06.368Z,97281.72
2023-04-15T02:33:33.197Z,97280.84
2023-04-15T02:36:01.012Z,97278.38
2023-04-15T02:38:28.396Z,97287.16
2023-04-15T02:40:55.478Z,97283.66
2023-04-15T02:43:22.157Z,97283.66
2023-04-15T02:45:50.099Z,97286.28
2023-04-15T02:48:19.373Z,97277.66
2023-04-15T02:50:46.773Z,97289.91
2023-04-15T02:53:14.772Z,97281.97
2023-04-15T02:55:42.756Z,97282.94
2023-04-15T02:58:09.365Z,97282.13
2023-04-15T03:00:36.194Z,97282.94
2023-04-15T03:03:04.972Z,97276.84
2023-04-15T03:05:31.989Z,97286.59
2023-04-15T03:07:59.026Z,97283.97
2023-04-15T03:10:25.871Z,97288.53
2023-04-15T03:12:52.445Z,97293.84
2023-04-15T03:15:21.389Z,97303.44
2023-04-15T03:17:51.333Z,97299.13
2023-04-15T03:20:17.928Z,97297.28
2023-04-15T03:22:44.721Z,97302.72
2023-04-15T03:25:11.825Z,97312.47
2023-04-15T03:27:39.277Z,97305.25
2023-04-15T03:30:07.636Z,97308.59
2023-04-15T03:32:36.612Z,97320.53
2023-04-15T03:35:03.368Z,97322.22
2023-04-15T03:37:29.873Z,97325.81
2023-04-15T03:39:56.521Z,97321.53
2023-04-15T03:42:23.221Z,97322.34
2023-04-15T03:44:49.779Z,97317.06
2023-04-15T03:47:16.393Z,97318.91
2023-04-15T03:49:42.942Z,97323.34
2023-04-15T03:52:09.496Z,97327.78
2023-04-15T03:54:36.260Z,97329.59
2023-04-15T03:57:03.366Z,97329.59
2023-04-15T03:59:29.996Z,97321.09
2023-04-15T04:01:56.650Z,97331.56
2023-04-15T04:04:23.499Z,97336.00
2023-04-15T04:06:50.210Z,97337.81
2023-04-15T04:09:16.871Z,97350.19
2023-04-15T04:11:43.427Z,97357.28
2023-04-15T04:14:09.958Z,97361.75
2023-04-15T04:16:36.748Z,97369.69
2023-04-15T04:19:03.866Z,97347.69
2023-04-15T04:21:30.954Z,97350.19
2023-04-15T04:23:57.553Z,97357.44
2023-04-15T04:26:24.075Z,97360.19
2023-04-15T04:28:50.733Z,97351.44
2023-04-15T04:31:17.376Z,97354.91
2023-04-15T04:33:43.931Z,97360.19
2023-04-15T04:36:10.473Z,97360.19
2023-04-15T04:38:37.044Z,97362.03
2023-04-15T04:41:03.657Z,97367.31
2023-04-15T04:43:30.661Z,97368.28
2023-04-15T04:45:57.253Z,97371.78
2023-04-15T04:48:23.884Z,97369.94
2023-04-15T04:50:50.502Z,97363.84
2023-04-15T04:53:18.085Z,97360.34
2023-04-15T04:55:44.605Z,97364.13
2023-04-15T04:58:11.656Z,97365.63
2023-04-15T05:00:38.516Z,97360.50
2023-04-15T05:03:05.416Z,97375.38
2023-04-15T05:05:32.059Z,97375.38
2023-04-15T05:07:58.901Z,97377.19
2023-04-15T05:10:25.544Z,97379.81
2023-04-15T05:12:55.429Z,97381.50
2023-04-15T05:15:21.971Z,97372.03
2023-04-15T05:17:48.500Z,97378.19
2023-04-15T05:20:15.618Z,97373.88
2023-04-15T05:22:42.141Z,97370.25
2023-04-15T05:25:09.802Z,97381.91
2023-04-15T05:27:36.752Z,97385.25
2023-04-15T05:30:07.293Z,97398.31
2023-04-15T05:32:33.864Z,97396.53
2023-04-15T05:35:00.527Z,97396.53
2023-04-15T05:37:27.135Z,97395.69
2023-04-15T05:39:53.665Z,97398.19
2023-04-15T05:42:20.286Z,97397.19
2023-04-15T05:44:46.941Z,97407.66
2023-04-15T05:47:13.578Z,97411.97
2023-04-15T05:49:40.419Z,97408.31
2023-04-15T05:52:06.960Z,97407.50
2023-04-15T05:54:33.542Z,97402.94
2023-04-15T05:57:00.914Z,97403.59
2023-04-15T05:59:28.392Z,97405.28
2023-04-15T06:01:55.251Z,97399.84
2023-04-15T06:04:22.034Z,97403.34
2023-04-15T06:06:49.142Z,97405.97
2023-04-15T06:09:15.888Z,97405.81
2023-04-15T06:11:42.553Z,97409.31
2023-04-15T06:14:09.753Z,97411.97
2023-04-15T06:16:36.666Z,97410.13
2023-04-15T06:19:03.767Z,97417.09
2023-04-15T06:21:31.524Z,97419.75
2023-04-15T06:24:01.242Z,97426.56
2023-04-15T06:26:28.393Z,97424.72
2023-04-15T06:28:55.644Z,97423.75
2023-04-15T06:31:22.274Z,97427.25
2023-04-15T06:33:49.010Z,97437.69
2023-04-15T06:36:15.739Z,97431.44
2023-04-15T06:38:42.213Z,97431.44
2023-04-15T06:41:08.830Z,97431.44
2023-04-15T06:43:35.515Z,97422.66
2023-04-15T06:46:02.367Z,97427.13
2023-04-15T06:48:28.954Z,97434.06
2023-04-15T06:50:55.594Z,97436.56
2023-04-15T06:53:22.912Z,97439.91
2023-04-15T06:55:49.499Z,97437.13
2023-04-15T06:58:16.295Z,97442.41
2023-04-15T07:00:42.924Z,97457.31
2023-04-15T07:03:11.087Z,97454.50
2023-04-15T07:05:38.386Z,97446.84
2023-04-15T07:08:06.578Z,97455.47
2023-04-15T07:10:36.281Z,97453.66
2023-04-15T07:13:03.075Z,97461.47
2023-04-15T07:15:29.857Z,97454.38
2023-04-15T07:17:56.414Z,97461.31
2023-04-15T07:20:23.243Z,97474.41
2023-04-15T07:22:49.839Z,97458.53
2023-04-15T07:25:17.688Z,97465.50
2023-04-15T07:27:44.469Z,97465.50
2023-04-15T07:30:12.488Z,97468.13
2023-04-15T07:32:39.069Z,97464.66
2023-04-15T07:35:05.935Z,97461.19
2023-04-15T07:37:35.683Z,97463.69
2023-04-15T07:40:02.369Z,97477.91
2023-04-15T07:42:29.367Z,97480.53
2023-04-15T07:44:56.842Z,97479.69
2023-04-15T07:47:23.885Z,97486.66
2023-04-15T07:49:53.562Z,97488.31
2023-04-15T07:52:20.072Z,97484.84
2023-04-15T07:54:46.861Z,97485.69
2023-04-15T07:57:13.390Z,97490.00
2023-04-15T07:59:40.023Z,97491.69
2023-04-15T08:02:06.984Z,97497.63
2023-04-15T08:04:34.145Z,97489.69
2023-04-15T08:07:00.845Z,97489.59
2023-04-15T08:09:27.420Z,97492.09
2023-04-15T08:11:54.247Z,97499.03
2023-04-15T08:14:20.877Z,97505.88
2023-04-15T08:16:47.594Z,97509.31
2023-04-15T08:19:14.172Z,97499.44
2023-04-15T08:21:41.006Z,97502.81
2023-04-15T08:24:08.003Z,97500.81
2023-04-15T08:26:34.637Z,97500.56
2023-04-15T08:29:01.736Z,97506.53
2023-04-15T08:31:30.032Z,97510.84
2023-04-15T08:33:57.833Z,97511.53
2023-04-15T08:36:24.375Z,97512.38
2023-04-15T08:38:51.176Z,97515.75
2023-04-15T08:41:25.728Z,97496.09
2023-04-15T08:43:56.811Z,97505.88
2023-04-15T08:46:23.820Z,97514.63
2023-04-15T08:48:50.800Z,97490.66
2023-04-15T08:51:18.077Z,97511.56
2023-04-15T08:53:46.575Z,97510.44
2023-04-15T08:56:16.711Z,97516.56
2023-04-15T08:58:47.221Z,97520.72
2023-04-15T09:01:13.919Z,97516.13
2023-04-15T09:03:41.665Z,97517.81
2023-04-15T09:06:08.696Z,97518.50
2023-04-15T09:08:35.835Z,97518.38
2023-04-15T09:11:03.643Z,97521.72
2023-04-15T09:13:30.492Z,97518.91
2023-04-15T09:15:58.601Z,97516.13
2023-04-15T09:18:30.699Z,97508.88
2023-04-15T09:21:05.624Z,97493.97
2023-04-15T09:23:32.744Z,97507.59
2023-04-15T09:25:59.366Z,97502.31
2023-04-15T09:28:29.142Z,97501.19
2023-04-15T09:30:57.684Z,97502.84
2023-04-15T09:33:26.229Z,97503.00
2023-04-15T09:36:05.010Z,97487.16
2023-04-15T09:38:32.338Z,97501.59
2023-04-15T09:40:59.368Z,97504.25
2023-04-15T09:43:39.996Z,97505.09
2023-04-15T09:46:07.096Z,97504.25
2023-04-15T09:48:33.632Z,97512.06
2023-04-15T09:51:01.926Z,97513.75
2023-04-15T09:53:30.563Z,97504.69
2023-04-15T09:56:03.723Z,97513.44
2023-04-15T09:58:33.588Z,97508.97
2023-04-15T10:01:05.087Z,97502.59
2023-04-15T10:03:38.333Z,97505.91
2023-04-15T10:06:05.731Z,97499.63
2023-04-15T10:08:34.671Z,97500.47
2023-04-15T10:11:02.678Z,97505.63
2023-04-15T10:13:37.475Z,97500.19
2023-04-15T10:16:16.912Z,97495.72
2023-04-15T10:18:46.400Z,97495.59
2023-04-15T10:21:15.638Z,97496.41
2023-04-15T10:23:42.575Z,97497.94
2023-04-15T10:26:15.156Z,97497.94
2023-04-15T10:28:42.048Z,97497.78
2023-04-15T10:31:12.906Z,97484.69
2023-04-15T10:33:39.821Z,97492.19
2023-04-15T10:36:07.779Z,97492.06
2023-04-15T10:38:45.287Z,97487.59
2023-04-15T10:41:22.111Z,97485.63
2023-04-15T10:44:09.347Z,97492.59
2023-04-15T10:46:43.993Z,97495.25
2023-04-15T10:49:24.578Z,97495.94
2023-04-15T10:51:53.572Z,97454.38
2023-04-15T10:54:26.248Z,97501.09
2023-04-15T10:57:08.405Z,97496.09
2023-04-15T10:59:38.077Z,97507.25
2023-04-15T11:02:06.863Z,97500.13
2023-04-15T11:04:56.501Z,97498.28
2023-04-15T11:07:48.548Z,97501.78
2023-04-15T11:10:17.954Z,97495.63
2023-04-15T11:12:45.566Z,97500.81
2023-04-15T11:15:35.888Z,97506.22
2023-04-15T11:18:17.414Z,97501.78
2023-04-15T11:20:45.866Z,97492.91
2023-04-15T11:23:16.914Z,97494.44
2023-04-15T11:25:44.164Z,97506.22
2023-04-15T11:28:15.406Z,97508.75
2023-04-15T11:30:43.495Z,97505.97
2023-04-15T11:33:12.282Z,97516.41
2023-04-15T11:35:42.440Z,97509.31
2023-04-15T11:38:12.015Z,97515.25
2023-04-15T11:40:39.093Z,97513.47
2023-04-15T11:43:10.725Z,97509.00
2023-04-15T11:45:38.643Z,97523.91
2023-04-15T11:48:09.800Z,97521.13
2023-04-15T11:50:40.548Z,97518.22
2023-04-15T11:53:09.178Z,97518.78
2023-04-15T11:56:02.006Z,97525.31
2023-04-15T11:58:31.575Z,97533.13
2023-04-15T12:01:00.359Z,97533.94
2023-04-15T12:03:31.249Z,97532.97
2023-04-15T12:06:13.240Z,97539.09
2023-04-15T12:08:56.017Z,97539.94
2023-04-15T12:11:37.520Z,97537.31
2023-04-15T12:14:10.060Z,97539.09
2023-04-15T12:16:53.864Z,97547.03
2023-04-15T12:19:28.850Z,97540.94
2023-04-15T12:22:01.356Z,97539.25
2023-04-15T12:24:31.296Z,97544.56
2023-04-15T12:27:02.689Z,97533.25
2023-04-15T12:29:30.590Z,97537.72
2023-04-15T12:31:59.174Z,97536.75
2023-04-15T12:34:32.099Z,97548.56
2023-04-15T12:37:00.639Z,97545.91
2023-04-15T12:39:30.811Z,97545.78
2023-04-15T12:41:58.704Z,97539.66
2023-04-15T12:44:25.905Z,97547.44
2023-04-15T12:46:53.502Z,97546.47
2023-04-15T12:49:24.239Z,97546.47
2023-04-15T12:51:52.958Z,97539.22
2023-04-15T12:54:20.098Z,97552.47
2023-04-15T12:56:48.271Z,97547.31
2023-04-15T12:59:16.201Z,97545.50
2023-04-15T13:01:42.828Z,97544.50
2023-04-15T13:04:09.643Z,97540.88
2023-04-15T13:06:36.874Z,97540.72
2023-04-15T13:09:06.783Z,97539.75
2023-04-15T13:11:33.918Z,97531.41
2023-04-15T13:14:02.293Z,97529.59
2023-04-15T13:16:29.984Z,97534.06
2023-04-15T13:18:56.610Z,97542.19
2023-04-15T13:21:23.240Z,97539.69
2023-04-15T13:23:51.015Z,97535.13
2023-04-15T13:26:18.262Z,97548.78
2023-04-15T13:28:45.752Z,97539.47
2023-04-15T13:31:12.576Z,97539.91
2023-04-15T13:33:39.106Z,97544.50
2023-04-15T13:36:06.073Z,97545.63
2023-04-15T13:38:35.649Z,97536.00
2023-04-15T13:41:02.295Z,97533.50
2023-04-15T13:43:28.845Z,97531.00
2023-04-15T13:45:56.563Z,97528.50
2023-04-15T13:48:23.170Z,97530.44
2023-04-15T13:50:50.340Z,97537.56
2023-04-15T13:53:16.873Z,97531.44
2023-04-15T13:55:43.833Z,97540.22
2023-04-15T13:58:11.642Z,97534.94
2023-04-15T14:00:39.155Z,97542.88
2023-04-15T14:03:05.797Z,97544.66
2023-04-15T14:05:35.406Z,97543.13
2023-04-15T14:08:01.918Z,97536.88
2023-04-15T14:10:28.566Z,97551.91
2023-04-15T14:12:55.095Z,97545.94
2023-04-15T14:15:21.721Z,97543.56
2023-04-15T14:17:48.363Z,97535.06
2023-04-15T14:20:17.044Z,97542.19
2023-04-15T14:22:43.907Z,97539.69
2023-04-15T14:25:15.088Z,97541.78
2023-04-15T14:27:46.751Z,97546.94
2023-04-15T14:30:13.498Z,97548.88
2023-04-15T14:32:40.330Z,97556.94
2023-04-15T14:35:07.324Z,97548.59
2023-04-15T14:37:33.969Z,97562.53
2023-04-15T14:40:00.596Z,97556.53
2023-04-15T14:42:27.177Z,97550.56
2023-04-15T14:44:53.682Z,97548.75
2023-04-15T14:47:20.570Z,97556.69
2023-04-15T14:49:47.259Z,97549.72
2023-04-15T14:52:13.884Z,97549.84
2023-04-15T14:54:40.553Z,97550.00
2023-04-15T14:57:08.695Z,97551.97
2023-04-15T14:59:35.759Z,97557.94
2023-04-15T15:02:04.459Z,97550.97
2023-04-15T15:04:33.399Z,97559.06
2023-04-15T15:07:00.654Z,97554.44
2023-04-15T15:09:29.010Z,97543.31
2023-04-15T15:11:56.980Z,97559.31
2023-04-15T15:14:23.971Z,97557.63
2023-04-15T15:16:50.973Z,97565.56
2023-04-15T15:19:17.567Z,97565.56
2023-04-15T15:21:44.186Z,97567.50
2023-04-15T15:24:10.696Z,97576.41
2023-04-15T15:26:37.301Z,97571.56
2023-04-15T15:29:04.091Z,97580.88
2023-04-15T15:31:30.972Z,97580.47
2023-04-15T15:33:57.896Z,97578.50
2023-04-15T15:36:24.409Z,97585.19
2023-04-15T15:38:50.961Z,97582.25
2023-04-15T15:41:17.753Z,97588.78
2023-04-15T15:43:44.257Z,97582.22
2023-04-15T15:46:10.881Z,97593.09
2023-04-15T15:48:37.704Z,97595.03
2023-04-15T15:51:04.549Z,97590.59
2023-04-15T15:53:31.201Z,97593.50
2023-04-15T15:58:22.607Z,97593.75
2023-04-15T16:00:49.611Z,97602.91
2023-04-15T16:03:16.227Z,97600.25
2023-04-15T16:05:43.069Z,97608.34
2023-04-15T16:08:09.596Z,97613.63
2023-04-15T16:10:37.639Z,97608.44
2023-04-15T16:13:04.571Z,97604.13
2023-04-15T16:15:31.562Z,97600.78
2023-04-15T16:17:58.495Z,97611.63
2023-04-15T16:20:25.256Z,97618.69
2023-04-15T16:22:51.943Z,97614.41
2023-04-15T16:25:19.655Z,97613.56
2023-04-15T16:27:57.700Z,97616.34
2023-04-15T16:32:44.282Z,97617.53
2023-04-15T16:35:11.647Z,97634.41
2023-04-15T16:37:38.291Z,97638.69
2023-04-15T16:40:05.275Z,97664.03
2023-04-15T16:42:32.097Z,97669.88
2023-04-15T16:44:58.683Z,97674.31
2023-04-15T16:47:25.554Z,97670.84
2023-04-15T16:49:52.154Z,97681.66
2023-04-15T16:52:19.926Z,97685.78
2023-04-15T16:54:46.476Z,97683.25
2023-04-15T16:57:16.257Z,97689.44
2023-04-15T16:59:42.786Z,97682.56
2023-04-15T17:02:13.660Z,97681.09
2023-04-15T17:04:41.729Z,97684.44
2023-04-15T17:07:11.747Z,97684.22
2023-04-15T17:09:39.675Z,97690.84
2023-04-15T17:12:07.374Z,97694.34
2023-04-15T17:14:35.003Z,97684.94
2023-04-15T17:17:01.645Z,97685.94
2023-04-15T17:19:28.371Z,97691.13
2023-04-15T17:21:55.235Z,97683.97
2023-04-15T17:24:21.893Z,97686.63
2023-04-15T17:26:48.729Z,97690.31
2023-04-15T17:29:15.404Z,97674.34
2023-04-15T17:31:42.181Z,97694.75
2023-04-15T17:34:10.035Z,97703.63
2023-04-15T17:36:38.084Z,97687.66
2023-04-15T17:39:04.877Z,97709.66
2023-04-15T17:41:31.721Z,97717.91
2023-04-15T17:43:58.303Z,97709.34
2023-04-15T17:46:24.952Z,97709.81
2023-04-15T17:48:51.738Z,97719.13
2023-04-15T17:51:21.710Z,97724.84
2023-04-15T17:53:48.302Z,97710.25
2023-04-15T17:56:14.940Z,97730.47
2023-04-15T17:58:43.259Z,97736.44
2023-04-15T18:01:09.787Z,97732.72
2023-04-15T18:03:36.678Z,97735.09
2023-04-15T18:06:03.685Z,97742.75
2023-04-15T18:08:33.155Z,97749.63
2023-04-15T18:10:59.940Z,97760.03
2023-04-15T18:13:26.839Z,97765.06
2023-04-15T18:15:53.438Z,97780.91
2023-04-15T18:18:19.984Z,97778.97
2023-04-15T18:20:48.012Z,97781.47
2023-04-15T18:23:14.620Z,97790.13
2023-04-15T18:25:43.530Z,97797.09
2023-04-15T18:28:11.008Z,97797.09
2023-04-15T18:30:37.666Z,97804.88
2023-04-15T18:33:04.704Z,97812.81
2023-04-15T18:35:31.493Z,97816.03
2023-04-15T18:37:58.875Z,97820.50
2023-04-15T18:40:26.048Z,97822.13
2023-04-15T18:42:52.777Z,97828.28
2023-04-15T18:45:20.324Z,97826.47
2023-04-15T18:47:51.460Z,97832.84
2023-04-15T18:50:20.566Z,97839.53
2023-04-15T18:52:47.733Z,97844.00
2023-04-15T18:55:15.056Z,97842.19
2023-04-15T18:57:49.966Z,97848.31
2023-04-15T19:00:18.088Z,97857.94
2023-04-15T19:02:45.015Z,97863.06
2023-04-15T19:05:11.682Z,97861.41
2023-04-15T19:07:38.415Z,97851.34
2023-04-15T19:10:06.232Z,97864.75
2023-04-15T19:12:35.102Z,97872.69
2023-04-15T19:15:01.955Z,97870.03
2023-04-15T19:17:28.531Z,97878.78
2023-04-15T19:19:55.191Z,97880.63
2023-04-15T19:22:21.992Z,97874.38
2023-04-15T19:24:54.482Z,97863.91
2023-04-15T19:27:21.441Z,97873.50
2023-04-15T19:29:48.150Z,97868.50
2023-04-15T19:32:15.084Z,97876.91
2023-04-15T19:34:41.955Z,97877.63
2023-04-15T19:37:11.688Z,97875.94
2023-04-15T19:39:38.726Z,97874.25
2023-04-15T19:42:08.435Z,97873.31
2023-04-15T19:44:35.410Z,97875.09
2023-04-15T19:47:02.366Z,97877.72
2023-04-15T19:49:29.344Z,97872.44
2023-04-15T19:51:56.275Z,97874.47
2023-04-15T19:54:24.162Z,97875.22
2023-04-15T19:56:52.420Z,97870.28
2023-04-15T19:59:19.156Z,97879.66
2023-04-15T20:01:45.898Z,97879.56
2023-04-15T20:04:17.134Z,97885.66
2023-04-15T20:06:43.837Z,97893.59
2023-04-15T20:09:11.425Z,97905.00
2023-04-15T20:12:46.256Z,97904.16
2023-04-15T20:14:25.633Z,97905.84
2023-04-15T20:16:52.445Z,97904.06
2023-04-15T20:19:20.678Z,97912.09
2023-04-15T20:21:47.276Z,97909.44
2023-04-15T20:24:16.759Z,97913.78
2023-04-15T20:26:43.358Z,97919.06
2023-04-15T20:29:10.289Z,97921.84
2023-04-15T20:31:37.220Z,97909.69
2023-04-15T20:34:03.943Z,97911.38
2023-04-15T20:36:31.700Z,97926.34
2023-04-15T20:38:59.259Z,97931.53
2023-04-15T20:41:28.898Z,97931.44
2023-04-15T20:43:55.653Z,97930.59
2023-04-15T20:46:23.092Z,97937.56
2023-04-15T20:48:50.755Z,97942.84
2023-04-15T20:51:19.842Z,97934.09
2023-04-15T20:53:47.220Z,97942.00
2023-04-15T20:56:13.732Z,97948.25
2023-04-15T20:58:41.205Z,97952.69
2023-04-15T21:01:10.105Z,97950.03
2023-04-15T21:03:36.931Z,97950.91
2023-04-15T21:06:03.923Z,97951.72
2023-04-15T21:08:31.643Z,97961.47
2023-04-15T21:10:58.583Z,97958.81
2023-04-15T21:13:27.978Z,97961.56
2023-04-15T21:15:54.800Z,97966.84
2023-04-15T21:18:22.206Z,97976.56
2023-04-15T21:21:06.713Z,97975.66
2023-04-15T21:23:35.806Z,97970.47
2023-04-15T21:26:02.474Z,97978.38
2023-04-15T21:28:29.869Z,97984.41
2023-04-15T21:30:57.062Z,97984.41
2023-04-15T21:33:24.026Z,97989.69
2023-04-15T21:35:50.646Z,97984.50
2023-04-15T21:38:17.233Z,97988.84
2023-04-15T21:40:43.811Z,97989.69
2023-04-15T21:43:10.757Z,97985.47
2023-04-15T21:45:40.284Z,97997.63
2023-04-15T21:48:08.264Z,98002.06
2023-04-15T21:50:38.307Z,97995.44
2023-04-15T21:53:07.660Z,98006.50
2023-04-15T21:55:34.254Z,98005.78
2023-04-15T21:58:00.915Z,98013.56
2023-04-15T22:00:27.608Z,98015.28
2023-04-15T22:02:54.266Z,98018.03
2023-04-15T22:05:21.015Z,98022.34
2023-04-15T22:07:47.630Z,98024.13
2023-04-15T22:10:14.245Z,98013.38
2023-04-15T22:12:41.948Z,98022.34
2023-04-15T22:15:08.908Z,98010.00
2023-04-15T22:17:35.639Z,98033.03
2023-04-15T22:20:02.812Z,98034.72
2023-04-15T22:22:43.438Z,98035.56
2023-04-15T22:25:12.215Z,98028.81
2023-04-15T22:27:38.753Z,98037.34
2023-04-15T22:30:07.874Z,98040.94
2023-04-15T22:32:34.455Z,98036.66
2023-04-15T22:35:01.784Z,98038.31
2023-04-15T22:37:31.269Z,98019.03
2023-04-15T22:39:57.908Z,98043.72
2023-04-15T22:42:24.649Z,98042.78
2023-04-15T22:44:51.650Z,98026.00
2023-04-15T22:47:19.034Z,98046.38
2023-04-15T22:49:45.969Z,98032.34
2023-04-15T22:52:23.312Z,98050.81
2023-04-15T22:54:54.057Z,98048.28
2023-04-15T22:57:20.684Z,98051.78
2023-04-15T22:59:47.202Z,98054.56
2023-04-15T23:02:13.887Z,98059.72
2023-04-15T23:04:40.594Z,98052.75
2023-04-15T23:07:07.205Z,98058.84
2023-04-15T23:09:33.769Z,98058.03
2023-04-15T23:12:01.185Z,98068.59
2023-04-15T23:14:28.073Z,98065.22
2023-04-15T23:16:55.206Z,98073.06
2023-04-15T23:19:21.811Z,98079.16
2023-04-15T23:21:48.480Z,98080.13
2023-04-15T23:24:15.357Z,98077.47
2023-04-15T23:26:41.959Z,98077.63
2023-04-15T23:29:09.566Z,98071.25
2023-04-15T23:31:36.537Z,98084.72
2023-04-15T23:34:03.871Z,98080.38
2023-04-15T23:36:31.727Z,98083.03
2023-04-15T23:38:58.732Z,98077.75
2023-04-15T23:41:28.120Z,98082.06
2023-04-15T23:43:54.708Z,98088.31
2023-04-15T23:46:21.323Z,98087.59
2023-04-15T23:48:49.008Z,98085.69
2023-04-15T23:51:15.939Z,98086.75
2023-04-15T23:53:42.614Z,98090.22
2023-04-15T23:56:09.127Z,98086.03
2023-04-15T23:58:35.750Z,98087.72
